Time;durP1;ratioP1;P1;durP2;ratioP2;P2;SDS_P1;SDS_P2;PMS_P1;PMS_P2;Temp;Humidity;BMP_temperature;BMP_pressure;BME280_temperature;BME280_humidity;BME280_pressure;Samples;Min_cycle;Max_cycle;Signal;HPM_P1;HPM_P2
2023/03/29 00:01:35;;;;;;;4.40;3.80;;;5.80;99.90;;;;;;5047155;28;20424;-73
2023/03/29 00:04:03;;;;;;;4.50;4.10;;;5.80;99.90;;;;;;5044015;28;20906;-73
2023/03/29 00:06:31;;;;;;;4.70;4.10;;;5.80;99.90;;;;;;5045853;28;20431;-72
2023/03/29 00:08:59;;;;;;;4.22;3.83;;;5.80;99.90;;;;;;5047692;28;20489;-73
2023/03/29 00:11:26;;;;;;;5.03;4.05;;;5.80;99.90;;;;;;5058231;28;20428;-72
2023/03/29 00:13:53;;;;;;;3.65;3.35;;;5.80;99.90;;;;;;5046129;28;20437;-73
2023/03/29 00:16:20;;;;;;;4.40;4.00;;;5.80;99.90;;;;;;5045668;28;20417;-73
2023/03/29 00:18:47;;;;;;;4.35;3.70;;;5.80;99.90;;;;;;5047137;28;20443;-73
2023/03/29 00:21:15;;;;;;;4.43;3.80;;;5.80;99.90;;;;;;5048330;28;20441;-72
2023/03/29 00:23:42;;;;;;;4.18;3.75;;;5.70;99.90;;;;;;5044771;28;20452;-73
2023/03/29 00:26:09;;;;;;;4.63;3.90;;;5.80;99.90;;;;;;5060337;28;21191;-73
2023/03/29 00:28:36;;;;;;;4.50;3.92;;;5.80;99.90;;;;;;5042790;28;20749;-73
2023/03/29 00:31:08;;;;;;;4.38;3.80;;;5.80;99.90;;;;;;5046010;28;20405;-73
2023/03/29 00:33:35;;;;;;;4.80;3.70;;;5.80;99.90;;;;;;5045822;28;20448;-73
2023/03/29 00:36:03;;;;;;;3.90;3.60;;;5.90;99.90;;;;;;5042711;28;20450;-73
2023/03/29 00:38:32;;;;;;;5.97;3.70;;;5.90;99.90;;;;;;5048785;28;20491;-73
2023/03/29 00:40:59;;;;;;;5.10;3.80;;;5.90;99.90;;;;;;5053723;28;21057;-72
2023/03/29 00:43:26;;;;;;;4.90;4.10;;;5.90;99.90;;;;;;5044479;28;20422;-74
2023/03/29 00:45:53;;;;;;;4.70;3.50;;;5.90;99.90;;;;;;5045338;28;20421;-73
2023/03/29 00:48:22;;;;;;;4.10;3.70;;;5.90;99.90;;;;;;5046473;28;20421;-73
2023/03/29 00:50:53;;;;;;;4.03;3.63;;;5.90;99.90;;;;;;5044924;28;20417;-73
2023/03/29 00:53:25;;;;;;;3.67;3.30;;;5.90;99.90;;;;;;5048038;28;20439;-73
2023/03/29 00:55:56;;;;;;;3.70;3.40;;;5.90;99.90;;;;;;5052854;28;20591;-72
2023/03/29 00:58:30;;;;;;;4.00;3.60;;;5.90;99.90;;;;;;5041889;28;20872;-71
2023/03/29 01:01:01;;;;;;;3.60;3.30;;;5.90;99.90;;;;;;5046943;28;20847;-71
2023/03/29 01:03:33;;;;;;;3.30;2.80;;;5.90;99.90;;;;;;5045535;28;20508;-72
2023/03/29 01:06:04;;;;;;;3.60;3.27;;;5.90;99.90;;;;;;5039587;28;20421;-73
2023/03/29 01:08:36;;;;;;;4.78;3.70;;;5.90;99.90;;;;;;5053080;28;20817;-73
2023/03/29 01:11:07;;;;;;;4.38;3.88;;;5.90;99.90;;;;;;5051317;28;20817;-73
2023/03/29 01:13:39;;;;;;;5.00;3.80;;;5.90;99.90;;;;;;5044339;28;20437;-73
2023/03/29 01:16:07;;;;;;;3.80;3.40;;;5.90;99.90;;;;;;5046235;28;20429;-72
2023/03/29 01:18:34;;;;;;;3.90;3.50;;;5.90;99.90;;;;;;5045565;28;20447;-71
2023/03/29 01:21:15;;;;;;;4.50;3.90;;;5.90;99.90;;;;;;5044129;28;20437;-73
2023/03/29 01:24:05;;;;;;;4.30;3.40;;;5.90;99.90;;;;;;5051450;28;20474;-72
2023/03/29 01:26:42;;;;;;;5.53;3.60;;;5.90;99.90;;;;;;5041181;28;20460;-74
2023/03/29 01:29:16;;;;;;;3.88;3.47;;;5.90;99.90;;;;;;5041635;28;20883;-73
2023/03/29 01:31:50;;;;;;;5.18;3.63;;;6.00;99.90;;;;;;5045268;28;21113;-73
2023/03/29 01:34:26;;;;;;;3.90;3.38;;;6.00;99.90;;;;;;5044158;28;20441;-74
2023/03/29 01:36:59;;;;;;;3.95;3.55;;;6.00;99.90;;;;;;5052766;28;20441;-73
2023/03/29 01:39:26;;;;;;;3.83;3.43;;;6.00;99.90;;;;;;5055394;28;20947;-73
2023/03/29 01:42:09;;;;;;;3.80;3.50;;;6.00;99.90;;;;;;5031914;28;20416;-73
2023/03/29 01:44:47;;;;;;;3.88;3.50;;;6.00;99.90;;;;;;5043386;28;20478;-71
2023/03/29 01:47:20;;;;;;;4.25;3.67;;;6.10;99.90;;;;;;5035062;28;20490;-73
2023/03/29 01:49:54;;;;;;;4.05;3.42;;;6.10;99.90;;;;;;5042779;28;20449;-72
2023/03/29 01:52:26;;;;;;;4.10;3.20;;;6.10;99.90;;;;;;5054881;28;20454;-74
2023/03/29 01:54:55;;;;;;;3.90;3.60;;;6.10;99.90;;;;;;5049341;28;20803;-73
2023/03/29 01:57:23;;;;;;;4.20;3.80;;;6.00;99.90;;;;;;5043435;28;20423;-73
2023/03/29 01:59:53;;;;;;;4.47;3.83;;;6.00;99.90;;;;;;5045093;28;20506;-73
2023/03/29 02:02:24;;;;;;;3.90;3.60;;;6.10;99.90;;;;;;5044624;28;20432;-73
2023/03/29 02:04:53;;;;;;;4.35;3.50;;;6.10;99.90;;;;;;5043754;28;20428;-73
2023/03/29 02:07:24;;;;;;;4.65;3.67;;;6.10;99.90;;;;;;5047116;28;20431;-73
2023/03/29 02:09:53;;;;;;;3.80;3.50;;;6.10;99.90;;;;;;5054987;28;20881;-73
2023/03/29 02:12:21;;;;;;;4.53;3.80;;;6.10;99.90;;;;;;5042747;28;20891;-73
2023/03/29 02:14:48;;;;;;;5.07;4.45;;;6.10;99.90;;;;;;5041449;28;20830;-73
2023/03/29 02:17:25;;;;;;;5.28;4.53;;;6.10;99.90;;;;;;5048407;28;20436;-73
2023/03/29 02:19:56;;;;;;;4.25;3.80;;;6.10;99.90;;;;;;5050112;28;20511;-73
2023/03/29 02:22:27;;;;;;;4.53;4.10;;;6.10;99.90;;;;;;5055556;28;20496;-73
2023/03/29 02:24:57;;;;;;;4.50;4.10;;;6.20;99.90;;;;;;5063303;28;20464;-73
2023/03/29 02:27:24;;;;;;;5.00;4.40;;;6.20;99.90;;;;;;5054322;28;20470;-73
2023/03/29 02:29:51;;;;;;;4.10;3.70;;;6.20;99.90;;;;;;5033226;28;20432;-73
2023/03/29 02:32:27;;;;;;;3.92;3.55;;;6.20;99.90;;;;;;5044177;28;21467;-73
2023/03/29 02:34:58;;;;;;;4.28;3.88;;;6.20;99.90;;;;;;5030436;28;20546;-73
2023/03/29 02:37:29;;;;;;;3.50;3.20;;;6.20;99.90;;;;;;5048607;28;20524;-73
2023/03/29 02:39:56;;;;;;;4.25;3.85;;;6.20;99.90;;;;;;5049140;28;20849;-73
2023/03/29 02:42:25;;;;;;;4.00;3.60;;;6.20;99.90;;;;;;5055167;28;20790;-73
2023/03/29 02:44:55;;;;;;;3.78;3.47;;;6.20;99.90;;;;;;5047090;28;20430;-73
2023/03/29 02:47:30;;;;;;;4.00;3.60;;;6.20;99.90;;;;;;5045082;28;20480;-73
2023/03/29 02:49:57;;;;;;;4.10;3.70;;;6.20;99.90;;;;;;5039626;28;20475;-73
2023/03/29 02:52:32;;;;;;;5.00;3.53;;;6.20;99.90;;;;;;5052119;28;20446;-74
2023/03/29 02:55:01;;;;;;;4.20;3.80;;;6.20;99.90;;;;;;5045768;28;20469;-73
2023/03/29 02:57:31;;;;;;;3.70;3.40;;;6.30;99.90;;;;;;5044652;28;20876;-73
2023/03/29 03:00:00;;;;;;;4.30;3.90;;;6.30;99.90;;;;;;5042242;28;20612;-73
2023/03/29 03:02:28;;;;;;;4.10;3.50;;;6.30;99.90;;;;;;5051356;28;20455;-73
2023/03/29 03:04:55;;;;;;;3.83;3.50;;;6.30;99.90;;;;;;5046145;28;20424;-74
2023/03/29 03:07:23;;;;;;;3.90;3.55;;;6.30;99.90;;;;;;5047364;28;20500;-73
2023/03/29 03:09:50;;;;;;;4.00;3.70;;;6.30;99.90;;;;;;5052869;28;20508;-73
2023/03/29 03:12:17;;;;;;;3.83;3.42;;;6.30;99.90;;;;;;5043294;28;20516;-73
2023/03/29 03:14:44;;;;;;;4.40;3.63;;;6.40;99.90;;;;;;5044204;28;20432;-74
2023/03/29 03:17:10;;;;;;;4.37;3.60;;;6.40;99.90;;;;;;5045482;28;20879;-73
2023/03/29 03:19:38;;;;;;;4.40;4.00;;;6.40;99.90;;;;;;5049778;28;20425;-73
2023/03/29 03:22:06;;;;;;;3.80;3.30;;;6.40;99.90;;;;;;5036850;28;20918;-73
2023/03/29 03:24:34;;;;;;;4.50;3.20;;;6.40;99.90;;;;;;5051713;28;20408;-73
2023/03/29 03:27:01;;;;;;;3.10;2.80;;;6.40;99.90;;;;;;5042686;28;20528;-73
2023/03/29 03:29:27;;;;;;;3.80;3.40;;;6.40;99.90;;;;;;5048031;28;20432;-73
2023/03/29 03:31:54;;;;;;;4.03;3.63;;;6.50;99.90;;;;;;5049720;28;20434;-73
2023/03/29 03:34:22;;;;;;;3.97;3.67;;;6.50;99.90;;;;;;5035025;28;20472;-73
2023/03/29 03:36:50;;;;;;;4.85;3.45;;;6.50;99.90;;;;;;5046097;28;20535;-73
2023/03/29 03:39:17;;;;;;;5.05;3.38;;;6.50;99.90;;;;;;5057494;28;20416;-73
2023/03/29 03:41:43;;;;;;;3.70;3.40;;;6.50;99.90;;;;;;5038574;28;20429;-73
2023/03/29 03:44:10;;;;;;;3.78;3.47;;;6.50;99.90;;;;;;5044630;28;20442;-73
2023/03/29 03:46:37;;;;;;;3.70;3.30;;;6.50;99.90;;;;;;5055797;28;20444;-73
2023/03/29 03:49:04;;;;;;;4.35;3.20;;;6.60;99.90;;;;;;5040764;28;20435;-73
2023/03/29 03:51:31;;;;;;;4.65;3.53;;;6.60;99.70;;;;;;5040360;28;20436;-73
2023/03/29 03:53:59;;;;;;;3.85;3.25;;;6.60;99.10;;;;;;5051099;28;20452;-73
2023/03/29 03:56:28;;;;;;;4.33;3.50;;;6.60;98.80;;;;;;5047847;28;20932;-73
2023/03/29 03:58:55;;;;;;;3.40;3.15;;;6.50;99.00;;;;;;5042943;28;20452;-73
2023/03/29 04:01:22;;;;;;;5.63;3.60;;;6.60;98.90;;;;;;5051276;28;20463;-73
2023/03/29 04:03:49;;;;;;;4.15;3.47;;;6.50;98.90;;;;;;5046952;28;20484;-73
2023/03/29 04:06:16;;;;;;;3.70;3.40;;;6.60;98.90;;;;;;5050728;28;20505;-73
2023/03/29 04:08:43;;;;;;;4.00;3.50;;;6.60;98.90;;;;;;5041084;28;21060;-73
2023/03/29 04:11:11;;;;;;;4.10;3.65;;;6.60;98.90;;;;;;5046544;28;20442;-73
2023/03/29 04:13:37;;;;;;;4.50;4.10;;;6.60;98.80;;;;;;5054699;28;20419;-73
2023/03/29 04:16:05;;;;;;;4.68;4.20;;;6.60;99.00;;;;;;5042189;28;20429;-73
2023/03/29 04:18:32;;;;;;;4.30;3.88;;;6.60;99.10;;;;;;5042247;28;20451;-72
2023/03/29 04:20:59;;;;;;;5.95;4.00;;;6.60;98.70;;;;;;5043338;28;20451;-72
2023/03/29 04:23:26;;;;;;;5.07;3.90;;;6.70;98.60;;;;;;5041880;28;20433;-72
2023/03/29 04:25:54;;;;;;;4.00;3.70;;;6.70;98.90;;;;;;5050808;28;20853;-72
2023/03/29 04:28:23;;;;;;;4.00;3.60;;;6.60;99.10;;;;;;5048764;28;20937;-73
2023/03/29 04:30:50;;;;;;;4.10;3.70;;;6.70;99.00;;;;;;5041420;28;20456;-72
2023/03/29 04:33:16;;;;;;;4.60;3.30;;;6.70;99.10;;;;;;5041045;28;20413;-73
2023/03/29 04:35:43;;;;;;;4.70;3.42;;;6.70;98.90;;;;;;5050845;28;20911;-72
2023/03/29 04:38:10;;;;;;;4.13;3.72;;;6.70;98.60;;;;;;5049355;28;20500;-72
2023/03/29 04:40:37;;;;;;;3.85;3.45;;;6.80;98.60;;;;;;5057074;28;20454;-73
2023/03/29 04:43:03;;;;;;;3.70;3.40;;;6.80;98.60;;;;;;5046651;28;20926;-73
2023/03/29 04:45:32;;;;;;;3.88;3.50;;;6.80;98.50;;;;;;5053303;28;20427;-73
2023/03/29 04:47:59;;;;;;;3.60;3.30;;;6.80;98.40;;;;;;5053237;28;20428;-72
2023/03/29 04:50:26;;;;;;;3.60;3.30;;;6.80;98.90;;;;;;5046629;28;20528;-73
2023/03/29 04:52:52;;;;;;;4.47;3.60;;;6.90;98.90;;;;;;5045101;28;20846;-68
2023/03/29 04:55:19;;;;;;;3.65;3.22;;;6.90;99.00;;;;;;5055355;28;20427;-67
2023/03/29 04:57:46;;;;;;;3.58;3.20;;;6.90;98.70;;;;;;5055705;28;20440;-72
2023/03/29 05:00:14;;;;;;;3.40;3.10;;;6.90;98.40;;;;;;5040236;28;20441;-71
2023/03/29 05:02:43;;;;;;;3.90;3.50;;;6.90;98.20;;;;;;5045057;28;21125;-71
2023/03/29 05:05:10;;;;;;;3.70;3.30;;;6.90;98.10;;;;;;5050324;28;20417;-72
2023/03/29 05:07:37;;;;;;;4.15;3.50;;;6.90;98.20;;;;;;5044569;28;20506;-71
2023/03/29 05:10:05;;;;;;;4.13;3.30;;;6.90;98.30;;;;;;5046891;28;20946;-72
2023/03/29 05:12:32;;;;;;;3.70;3.40;;;6.90;98.50;;;;;;5043815;28;20491;-72
2023/03/29 05:14:59;;;;;;;3.88;3.35;;;6.90;98.60;;;;;;5041481;28;21319;-72
2023/03/29 05:17:26;;;;;;;5.78;3.60;;;6.90;98.90;;;;;;5049516;28;20491;-72
2023/03/29 05:19:54;;;;;;;5.05;4.25;;;6.90;99.10;;;;;;5044744;28;20460;-72
2023/03/29 05:22:22;;;;;;;4.65;3.90;;;6.90;99.20;;;;;;5049879;28;20431;-72
2023/03/29 05:24:49;;;;;;;3.83;3.50;;;6.90;99.30;;;;;;5051342;28;20462;-72
2023/03/29 05:27:16;;;;;;;4.30;3.50;;;7.00;99.30;;;;;;5044381;28;20441;-72
2023/03/29 05:29:44;;;;;;;4.90;3.28;;;6.90;99.20;;;;;;5039804;28;20436;-72
2023/03/29 05:32:12;;;;;;;4.45;3.50;;;7.00;99.00;;;;;;5038743;28;20453;-73
2023/03/29 05:34:38;;;;;;;3.30;3.00;;;7.00;98.50;;;;;;5045109;28;20433;-72
2023/03/29 05:37:06;;;;;;;3.67;3.15;;;7.00;98.30;;;;;;5042749;28;20910;-72
2023/03/29 05:39:33;;;;;;;3.10;2.72;;;7.10;98.10;;;;;;5064046;22;20450;-71
2023/03/29 05:42:00;;;;;;;3.30;3.00;;;7.10;97.40;;;;;;5062465;28;20569;-69
2023/03/29 05:44:27;;;;;;;3.30;3.00;;;7.10;97.30;;;;;;5060411;28;20509;-69
2023/03/29 05:46:54;;;;;;;3.40;3.10;;;7.10;97.30;;;;;;5061394;28;20428;-70
2023/03/29 05:49:21;;;;;;;3.30;3.00;;;7.10;96.90;;;;;;5069647;28;20426;-71
2023/03/29 05:51:48;;;;;;;3.53;3.22;;;7.10;97.00;;;;;;5080624;28;20800;-71
2023/03/29 05:54:16;;;;;;;3.80;3.20;;;7.10;96.90;;;;;;5071003;28;20426;-71
2023/03/29 05:56:42;;;;;;;3.33;3.03;;;7.20;96.70;;;;;;5076454;28;20518;-70
2023/03/29 05:59:09;;;;;;;3.53;3.10;;;7.20;96.50;;;;;;5068198;28;20436;-70
2023/03/29 06:01:38;;;;;;;3.50;3.00;;;7.20;96.60;;;;;;5060629;28;20793;-70
2023/03/29 06:04:05;;;;;;;3.50;2.90;;;7.30;96.40;;;;;;5061237;28;20432;-69
2023/03/29 06:06:32;;;;;;;3.80;3.20;;;7.30;96.40;;;;;;5066190;28;20515;-70
2023/03/29 06:09:00;;;;;;;3.53;3.22;;;7.30;96.00;;;;;;5067669;28;20539;-70
2023/03/29 06:11:28;;;;;;;3.47;3.17;;;7.30;95.60;;;;;;5061444;28;20504;-68
2023/03/29 06:13:54;;;;;;;3.78;3.30;;;7.30;96.10;;;;;;5047808;28;20413;-69
2023/03/29 06:16:21;;;;;;;3.40;3.10;;;7.30;96.20;;;;;;5061815;28;20494;-71
2023/03/29 06:18:48;;;;;;;4.88;3.30;;;7.40;96.00;;;;;;5068161;28;20918;-68
2023/03/29 06:21:15;;;;;;;3.40;3.10;;;7.40;96.00;;;;;;5076079;28;20433;-71
2023/03/29 06:23:42;;;;;;;3.58;3.10;;;7.40;95.80;;;;;;5065914;28;20440;-68
2023/03/29 06:26:11;;;;;;;3.70;3.00;;;7.40;95.80;;;;;;5071769;28;20438;-71
2023/03/29 06:28:40;;;;;;;3.83;3.40;;;7.40;95.70;;;;;;5077232;28;20513;-69
2023/03/29 06:31:08;;;;;;;3.95;3.40;;;7.40;95.90;;;;;;5072939;28;20476;-70
2023/03/29 06:33:36;;;;;;;4.22;3.30;;;7.40;96.10;;;;;;5058622;28;20428;-70
2023/03/29 06:36:04;;;;;;;3.53;3.20;;;7.50;96.10;;;;;;5047901;28;20938;-70
2023/03/29 06:38:31;;;;;;;3.90;3.08;;;7.50;95.80;;;;;;5057847;28;20428;-69
2023/03/29 06:41:02;;;;;;;4.15;3.10;;;7.50;95.90;;;;;;5074254;28;20433;-69
2023/03/29 06:43:30;;;;;;;3.83;3.30;;;7.60;95.70;;;;;;5084318;28;20709;-69
2023/03/29 06:45:58;;;;;;;3.88;3.30;;;7.60;95.60;;;;;;5075785;28;20479;-69
2023/03/29 06:48:25;;;;;;;4.07;3.08;;;7.70;95.20;;;;;;5074747;28;20426;-70
2023/03/29 06:50:53;;;;;;;2.97;2.70;;;7.70;95.40;;;;;;5065686;28;20584;-69
2023/03/29 06:53:20;;;;;;;3.30;3.00;;;7.80;94.90;;;;;;5068128;28;20417;-70
2023/03/29 06:55:47;;;;;;;3.55;2.80;;;7.90;94.40;;;;;;5070402;28;20431;-70
2023/03/29 06:58:14;;;;;;;4.20;3.20;;;7.90;94.70;;;;;;5077101;28;20430;-70
2023/03/29 07:00:41;;;;;;;4.18;3.40;;;7.90;94.40;;;;;;5076229;28;20452;-70
2023/03/29 07:03:12;;;;;;;3.50;3.20;;;8.00;94.10;;;;;;5071226;28;20441;-69
2023/03/29 07:05:40;;;;;;;3.20;2.90;;;8.10;94.50;;;;;;5053692;28;20424;-70
2023/03/29 07:08:15;;;;;;;3.53;3.22;;;8.10;94.30;;;;;;5070326;28;20425;-69
2023/03/29 07:10:44;;;;;;;3.60;3.30;;;8.10;94.10;;;;;;5069957;28;20810;-72
2023/03/29 07:13:12;;;;;;;4.32;3.00;;;8.20;94.20;;;;;;5068836;28;20431;-69
2023/03/29 07:15:39;;;;;;;3.72;3.00;;;8.20;93.90;;;;;;5054478;28;20423;-69
2023/03/29 07:18:07;;;;;;;3.70;3.10;;;8.30;93.80;;;;;;5053631;28;20899;-69
2023/03/29 07:20:37;;;;;;;3.58;2.90;;;8.40;93.60;;;;;;5061741;28;20426;-69
2023/03/29 07:23:04;;;;;;;3.70;3.30;;;8.40;93.30;;;;;;5072955;28;20471;-70
2023/03/29 07:25:32;;;;;;;3.25;2.95;;;8.50;93.40;;;;;;5071287;28;20450;-70
2023/03/29 07:28:00;;;;;;;4.50;3.05;;;8.50;93.10;;;;;;5069748;28;20440;-70
2023/03/29 07:30:28;;;;;;;3.20;2.90;;;8.50;93.50;;;;;;5073884;28;20504;-71
2023/03/29 07:32:57;;;;;;;3.55;3.20;;;8.50;93.20;;;;;;5074588;28;20942;-70
2023/03/29 07:35:25;;;;;;;5.55;3.20;;;8.50;93.50;;;;;;5076048;28;21049;-70
2023/03/29 07:37:54;;;;;;;4.10;3.70;;;8.50;93.50;;;;;;5058723;28;20463;-70
2023/03/29 07:40:22;;;;;;;3.42;3.13;;;8.60;93.50;;;;;;5075722;28;20483;-70
2023/03/29 07:42:51;;;;;;;3.33;3.03;;;8.70;93.30;;;;;;5064743;28;20425;-70
2023/03/29 07:45:19;;;;;;;3.58;3.17;;;8.70;93.20;;;;;;5060320;28;20503;-71
2023/03/29 07:47:46;;;;;;;3.40;3.10;;;8.70;93.30;;;;;;5077113;28;20941;-71
2023/03/29 07:50:13;;;;;;;3.50;3.20;;;8.80;92.90;;;;;;5067871;28;20407;-70
2023/03/29 07:52:40;;;;;;;4.10;3.70;;;8.90;92.90;;;;;;5066546;28;20411;-71
2023/03/29 07:55:10;;;;;;;3.65;3.35;;;8.90;92.70;;;;;;5068702;28;20438;-70
2023/03/29 07:57:37;;;;;;;3.50;3.20;;;8.90;92.60;;;;;;5077030;28;20424;-70
2023/03/29 08:00:14;;;;;;;3.50;3.20;;;8.90;92.60;;;;;;5056183;28;20444;-70
2023/03/29 08:02:42;;;;;;;3.47;3.17;;;9.00;92.30;;;;;;5046973;28;20428;-70
2023/03/29 08:05:11;;;;;;;4.05;2.90;;;9.10;92.40;;;;;;5048325;28;20510;-70
2023/03/29 08:07:38;;;;;;;4.50;3.15;;;9.10;92.10;;;;;;5060454;28;20409;-70
2023/03/29 08:10:06;;;;;;;3.92;3.25;;;9.10;91.90;;;;;;5068928;28;20676;-70
2023/03/29 08:12:35;;;;;;;5.18;3.50;;;9.30;91.90;;;;;;5057590;28;20412;-70
2023/03/29 08:15:02;;;;;;;4.97;3.15;;;9.30;91.90;;;;;;5052251;28;20440;-70
2023/03/29 08:17:28;;;;;;;3.35;3.05;;;9.50;91.70;;;;;;5059401;28;20443;-69
2023/03/29 08:19:55;;;;;;;3.50;3.10;;;9.60;91.40;;;;;;5081010;28;20425;-70
2023/03/29 08:22:22;;;;;;;4.13;3.20;;;9.80;91.00;;;;;;5072318;28;20814;-69
2023/03/29 08:24:48;;;;;;;3.30;3.00;;;9.90;90.20;;;;;;5084363;28;20792;-70
2023/03/29 08:27:16;;;;;;;4.90;3.20;;;10.00;90.00;;;;;;5051602;28;20409;-70
2023/03/29 08:29:44;;;;;;;4.38;2.90;;;10.20;89.40;;;;;;5064909;28;20801;-70
2023/03/29 08:32:11;;;;;;;3.70;3.30;;;10.30;88.80;;;;;;5051714;28;20409;-70
2023/03/29 08:34:37;;;;;;;5.22;3.53;;;10.50;87.00;;;;;;5076367;28;20436;-70
2023/03/29 08:37:04;;;;;;;3.40;3.10;;;10.40;86.10;;;;;;5075969;28;20975;-70
2023/03/29 08:39:31;;;;;;;3.50;3.20;;;10.40;87.10;;;;;;5063384;28;21163;-70
2023/03/29 08:42:10;;;;;;;4.00;3.58;;;10.40;87.10;;;;;;5072801;28;20804;-68
2023/03/29 08:44:55;;;;;;;4.47;3.30;;;10.30;87.60;;;;;;5068137;28;20419;-71
2023/03/29 08:47:30;;;;;;;3.97;3.08;;;10.20;88.60;;;;;;5051755;28;20430;-69
2023/03/29 08:49:57;;;;;;;4.07;3.60;;;10.30;89.70;;;;;;5073353;28;20424;-69
2023/03/29 08:52:34;;;;;;;4.50;3.70;;;10.30;89.60;;;;;;5062779;28;20428;-69
2023/03/29 08:55:04;;;;;;;4.35;3.30;;;10.20;90.10;;;;;;5072276;28;20424;-70
2023/03/29 08:57:33;;;;;;;4.78;3.63;;;10.20;90.10;;;;;;5064095;28;20792;-70
2023/03/29 09:00:04;;;;;;;4.00;3.50;;;10.20;90.40;;;;;;5057618;28;20426;-69
2023/03/29 09:02:34;;;;;;;4.82;3.30;;;10.30;90.40;;;;;;5078844;28;20844;-69
2023/03/29 09:05:07;;;;;;;4.35;3.63;;;10.40;90.30;;;;;;5073221;28;20439;-69
2023/03/29 09:07:34;;;;;;;4.70;3.63;;;10.50;90.00;;;;;;5071299;28;20408;-69
2023/03/29 09:10:02;;;;;;;3.85;3.40;;;10.50;89.70;;;;;;5079090;28;20792;-70
2023/03/29 09:12:43;;;;;;;4.18;3.45;;;10.50;90.00;;;;;;5071992;28;20479;-70
2023/03/29 09:15:18;;;;;;;4.18;3.50;;;10.50;90.00;;;;;;5058037;28;20425;-70
2023/03/29 09:17:59;;;;;;;5.70;3.40;;;10.50;90.00;;;;;;5082277;28;20525;-70
2023/03/29 09:20:36;;;;;;;4.73;3.30;;;10.50;90.30;;;;;;5051372;28;20417;-70
2023/03/29 09:23:21;;;;;;;4.68;3.20;;;10.60;90.00;;;;;;5053098;28;20413;-70
2023/03/29 09:25:55;;;;;;;4.25;3.35;;;10.60;90.10;;;;;;5081755;28;20422;-70
2023/03/29 09:28:29;;;;;;;5.78;3.60;;;10.50;90.30;;;;;;5050224;28;20878;-70
2023/03/29 09:31:05;;;;;;;4.00;3.20;;;10.50;90.30;;;;;;5064540;28;20411;-69
2023/03/29 09:33:41;;;;;;;4.00;3.33;;;10.50;90.60;;;;;;5068728;28;20920;-70
2023/03/29 09:36:11;;;;;;;5.38;3.72;;;10.50;90.40;;;;;;5056209;28;20432;-69
2023/03/29 09:38:42;;;;;;;4.75;3.33;;;10.50;90.50;;;;;;5064175;28;20431;-70
2023/03/29 09:41:20;;;;;;;6.13;3.70;;;10.50;90.60;;;;;;5076312;28;20409;-70
2023/03/29 09:43:49;;;;;;;4.60;3.05;;;10.50;90.70;;;;;;5065965;28;20423;-71
2023/03/29 09:46:22;;;;;;;4.93;3.85;;;10.50;90.90;;;;;;5062329;28;20406;-70
2023/03/29 09:48:50;;;;;;;9.67;6.77;;;10.60;90.90;;;;;;5062465;28;20553;-69
2023/03/29 09:51:19;;;;;;;5.28;4.43;;;10.60;90.70;;;;;;5049529;28;20621;-70
2023/03/29 09:53:46;;;;;;;6.57;4.43;;;10.70;90.50;;;;;;5063447;28;20510;-70
2023/03/29 09:56:14;;;;;;;5.28;4.25;;;10.70;90.70;;;;;;5056633;28;20437;-71
2023/03/29 09:58:42;;;;;;;6.43;4.30;;;10.70;90.80;;;;;;5051088;28;20665;-70
2023/03/29 10:01:12;;;;;;;4.93;4.40;;;10.80;90.70;;;;;;5066745;28;20940;-71
2023/03/29 10:03:41;;;;;;;5.32;3.72;;;10.80;90.60;;;;;;5054868;28;20810;-71
2023/03/29 10:06:10;;;;;;;4.13;3.60;;;10.90;90.60;;;;;;5069469;28;20421;-71
2023/03/29 10:08:41;;;;;;;4.03;3.40;;;11.10;90.40;;;;;;5078381;28;20435;-72
2023/03/29 10:11:13;;;;;;;4.82;3.30;;;11.10;90.10;;;;;;5085361;28;20423;-71
2023/03/29 10:13:48;;;;;;;4.40;3.35;;;11.30;89.80;;;;;;5061990;28;20414;-71
2023/03/29 10:16:20;;;;;;;6.68;3.40;;;11.40;89.80;;;;;;5057986;28;20417;-71
2023/03/29 10:18:50;;;;;;;4.63;3.50;;;11.40;88.70;;;;;;5057713;28;20434;-71
2023/03/29 10:21:19;;;;;;;5.40;3.20;;;11.50;88.40;;;;;;5064405;28;20529;-70
2023/03/29 10:23:47;;;;;;;5.13;3.33;;;11.60;88.40;;;;;;5087814;28;20842;-72
2023/03/29 10:26:23;;;;;;;5.10;3.40;;;11.70;88.60;;;;;;5071717;28;20418;-71
2023/03/29 10:28:53;;;;;;;4.45;3.20;;;11.80;88.70;;;;;;5073666;28;20423;-70
2023/03/29 10:31:22;;;;;;;5.70;3.50;;;11.90;88.50;;;;;;5058779;28;20412;-71
2023/03/29 10:33:54;;;;;;;5.25;3.58;;;12.00;87.50;;;;;;5060145;28;20425;-71
2023/03/29 10:36:22;;;;;;;4.00;3.13;;;12.10;87.30;;;;;;5068432;28;20634;-71
2023/03/29 10:38:50;;;;;;;4.13;3.30;;;12.40;86.40;;;;;;5078824;28;20934;-71
2023/03/29 10:41:17;;;;;;;3.63;2.83;;;12.60;85.00;;;;;;5059103;28;20428;-73
2023/03/29 10:43:48;;;;;;;4.00;3.30;;;13.00;83.70;;;;;;5074185;28;20435;-71
2023/03/29 10:46:21;;;;;;;4.25;3.63;;;13.20;82.60;;;;;;5066534;28;20430;-70
2023/03/29 10:48:49;;;;;;;3.58;3.13;;;13.40;80.60;;;;;;5086688;28;20424;-72
2023/03/29 10:51:19;;;;;;;4.65;3.30;;;13.50;79.70;;;;;;5067347;28;20459;-72
2023/03/29 10:53:47;;;;;;;3.75;3.40;;;13.80;78.60;;;;;;5089870;28;20442;-71
2023/03/29 10:56:29;;;;;;;5.00;3.50;;;13.90;78.00;;;;;;5060298;28;20421;-71
2023/03/29 10:59:16;;;;;;;5.30;3.30;;;14.00;77.50;;;;;;5070926;28;20419;-73
2023/03/29 11:01:52;;;;;;;4.95;3.30;;;14.20;75.10;;;;;;5064919;28;20483;-71
2023/03/29 11:04:26;;;;;;;3.42;3.03;;;14.30;75.80;;;;;;5059581;28;20414;-72
2023/03/29 11:07:09;;;;;;;6.60;3.40;;;14.50;74.70;;;;;;5059509;28;20427;-70
2023/03/29 11:09:46;;;;;;;3.50;2.80;;;14.60;73.80;;;;;;5082163;28;20413;-71
2023/03/29 11:12:19;;;;;;;3.65;3.35;;;14.60;72.00;;;;;;5066222;28;20417;-72
2023/03/29 11:14:59;;;;;;;4.00;3.45;;;14.40;72.40;;;;;;5048986;28;20423;-71
2023/03/29 11:17:39;;;;;;;4.03;3.20;;;14.30;74.30;;;;;;5069198;28;20471;-72
2023/03/29 11:20:19;;;;;;;4.47;3.22;;;14.40;74.10;;;;;;5075001;28;20829;-70
2023/03/29 11:22:52;;;;;;;3.70;2.60;;;14.30;74.10;;;;;;5075122;28;20796;-71
2023/03/29 11:25:40;;;;;;;5.93;3.50;;;14.30;75.00;;;;;;5070230;28;20429;-71
2023/03/29 11:28:14;;;;;;;3.90;3.50;;;14.40;74.00;;;;;;5059046;28;20413;-71
2023/03/29 11:30:46;;;;;;;4.15;3.20;;;14.30;74.00;;;;;;5070685;28;20414;-71
2023/03/29 11:33:27;;;;;;;3.65;3.00;;;14.20;74.00;;;;;;5073436;28;20432;-70
2023/03/29 11:36:01;;;;;;;4.50;3.40;;;14.20;75.60;;;;;;5081477;28;20509;-70
2023/03/29 11:38:38;;;;;;;3.60;3.15;;;14.10;75.70;;;;;;5091243;28;20425;-70
2023/03/29 11:41:14;;;;;;;5.40;3.40;;;14.20;76.10;;;;;;5081587;22;20463;-71
2023/03/29 11:43:46;;;;;;;4.60;3.60;;;14.30;76.30;;;;;;5060065;28;20479;-71
2023/03/29 11:46:17;;;;;;;5.03;3.53;;;14.60;75.10;;;;;;5066641;28;20914;-72
2023/03/29 11:48:50;;;;;;;5.30;3.77;;;14.90;73.20;;;;;;5060431;28;20494;-72
2023/03/29 11:51:22;;;;;;;4.70;3.20;;;15.00;73.00;;;;;;5063720;28;20527;-72
2023/03/29 11:54:00;;;;;;;3.60;3.30;;;15.10;72.70;;;;;;5065879;28;20546;-74
2023/03/29 11:56:33;;;;;;;3.85;3.30;;;15.20;71.40;;;;;;5069287;28;20919;-73
2023/03/29 11:59:08;;;;;;;4.65;3.60;;;15.30;72.50;;;;;;5068847;28;20446;-74
2023/03/29 12:01:41;;;;;;;4.18;3.20;;;15.40;70.90;;;;;;5065778;28;20726;-73
2023/03/29 12:04:14;;;;;;;4.90;3.10;;;15.50;71.40;;;;;;5060240;28;20415;-73
2023/03/29 12:06:47;;;;;;;3.65;3.05;;;15.60;71.40;;;;;;5066195;28;20439;-71
2023/03/29 12:09:25;;;;;;;4.85;2.70;;;15.80;71.10;;;;;;5065176;28;20457;-73
2023/03/29 12:11:57;;;;;;;3.25;2.30;;;16.00;69.20;;;;;;5064184;28;20424;-73
2023/03/29 12:14:28;;;;;;;4.15;2.55;;;16.10;69.00;;;;;;5066051;28;20415;-73
2023/03/29 12:17:00;;;;;;;2.93;2.00;;;16.20;68.90;;;;;;5066682;28;20444;-73
2023/03/29 12:19:31;;;;;;;4.15;2.30;;;16.10;69.10;;;;;;5060870;28;20787;-73
2023/03/29 12:21:59;;;;;;;3.75;2.30;;;16.20;69.10;;;;;;5064599;28;20961;-73
2023/03/29 12:24:30;;;;;;;3.65;1.85;;;16.10;69.00;;;;;;5059980;28;20428;-73
2023/03/29 12:27:22;;;;;;;3.67;2.60;;;16.00;68.20;;;;;;5055246;28;20466;-73
2023/03/29 12:30:12;;;;;;;3.30;1.98;;;16.00;68.60;;;;;;5049301;28;20423;-73
2023/03/29 12:32:51;;;;;;;3.67;2.03;;;16.20;68.20;;;;;;5058981;28;20462;-73
2023/03/29 12:35:30;;;;;;;4.00;1.90;;;16.40;67.30;;;;;;5055247;28;20446;-73
2023/03/29 12:38:07;;;;;;;3.15;2.00;;;16.70;67.20;;;;;;5063378;28;20553;-75
2023/03/29 12:40:41;;;;;;;3.17;2.20;;;17.10;63.20;;;;;;5064663;28;20491;-74
2023/03/29 12:43:15;;;;;;;1.70;1.20;;;17.20;63.70;;;;;;5063220;28;20436;-73
2023/03/29 12:45:47;;;;;;;2.05;1.33;;;17.10;62.70;;;;;;5064916;28;20431;-72
2023/03/29 12:48:16;;;;;;;2.55;1.70;;;17.20;62.60;;;;;;5057522;28;20500;-72
2023/03/29 12:50:48;;;;;;;3.40;2.00;;;17.40;62.00;;;;;;5064763;28;20444;-73
2023/03/29 12:53:20;;;;;;;2.85;1.58;;;17.40;62.10;;;;;;5064927;28;20431;-72
2023/03/29 12:56:07;;;;;;;2.80;1.90;;;17.60;61.60;;;;;;5062082;28;20431;-73
2023/03/29 12:58:43;;;;;;;2.75;1.70;;;17.70;60.90;;;;;;5064878;28;20892;-73
2023/03/29 13:01:23;;;;;;;2.45;1.50;;;18.00;59.40;;;;;;5065430;28;20427;-73
2023/03/29 13:03:52;;;;;;;2.10;1.17;;;18.10;57.50;;;;;;5064519;28;20459;-73
2023/03/29 13:06:31;;;;;;;2.90;1.60;;;18.10;58.30;;;;;;5063955;28;20420;-72
2023/03/29 13:09:00;;;;;;;2.67;1.40;;;18.10;58.50;;;;;;5063182;28;20716;-72